Terminal Aerodrome Forecast
Issued by NWS Melbourne, FL

Home | Current Version | Previous Version | Text Only | Print | Product List | Glossary On
Versions: 1 2 3 4 5 6 7 8 9 10 11 12 13 14 15 16 17 18 19 20 21 22
000
FTUS42 KMLB 301511 AAB
TAFMLB
TAF AMD
KMLB 301511Z 3015/3112 13011KT P6SM VCTS SCT020CB BKN060 OVC100
      TEMPO 3015/3018 VRB15G25KT 2SM +TSRA BKN020CB
     FM301800 14012G19KT 6SM -RA VCTS BKN030CB OVC100
     FM310100 15007KT P6SM VCSH SCT020 BKN050 OVC250=

USA.gov is the U.S. government's official web portal to all federal, state and local government web resources and services.